Time;durP1;ratioP1;P1;durP2;ratioP2;P2;SDS_P1;SDS_P2;PMS_P1;PMS_P2;Temp;Humidity;BMP_temperature;BMP_pressure;BME280_temperature;BME280_humidity;BME280_pressure;Samples;Min_cycle;Max_cycle;Signal;HPM_P1;HPM_P2
2023/09/07 06:40:07;;;;;;;16.03;14.90;;;19.10;28.80;;;;;;5904711;23;20413;-78
2023/09/07 06:42:33;;;;;;;15.03;14.17;;;19.20;28.20;;;;;;4940583;29;20845;-79
2023/09/07 06:44:58;;;;;;;15.87;14.40;;;19.10;28.70;;;;;;4941465;29;20447;-80
2023/09/07 06:47:24;;;;;;;15.33;14.30;;;19.00;28.90;;;;;;4942737;29;20188;-78
2023/09/07 06:49:49;;;;;;;14.73;13.80;;;19.00;29.30;;;;;;4940219;29;20195;-77
2023/09/07 06:52:15;;;;;;;16.27;15.00;;;19.00;29.30;;;;;;4939082;29;20679;-78
2023/09/07 06:54:40;;;;;;;15.60;14.30;;;19.00;29.30;;;;;;4938914;29;20229;-78
2023/09/07 06:57:08;;;;;;;15.57;14.47;;;19.00;29.30;;;;;;4938940;29;20203;-76
2023/09/07 06:59:34;;;;;;;14.63;13.53;;;19.10;29.40;;;;;;4938664;29;20220;-78
2023/09/07 07:02:00;;;;;;;14.93;14.13;;;19.20;29.40;;;;;;4953986;29;20884;-78
2023/09/07 07:04:26;;;;;;;15.23;14.27;;;19.20;29.40;;;;;;4955056;29;20289;-78
2023/09/07 07:06:51;;;;;;;13.97;13.17;;;19.30;29.10;;;;;;4943530;29;20432;-78
2023/09/07 07:09:17;;;;;;;16.97;15.63;;;19.40;29.20;;;;;;4944227;29;20191;-78
2023/09/07 07:11:43;;;;;;;17.43;15.87;;;19.40;28.70;;;;;;4941426;29;20192;-79
2023/09/07 07:14:09;;;;;;;14.70;13.77;;;19.40;28.60;;;;;;4942549;29;20180;-79
2023/09/07 07:16:34;;;;;;;14.90;14.00;;;19.50;29.40;;;;;;4940512;29;20191;-78
2023/09/07 07:19:00;;;;;;;15.27;14.37;;;19.50;29.10;;;;;;4941099;29;20424;-77
2023/09/07 07:21:25;;;;;;;14.27;13.47;;;19.60;28.40;;;;;;4941893;29;20215;-77
2023/09/07 07:23:51;;;;;;;14.87;13.70;;;19.70;28.30;;;;;;4940616;29;20216;-78
2023/09/07 07:26:17;;;;;;;15.07;13.83;;;19.80;27.80;;;;;;4939596;29;20227;-77
2023/09/07 07:28:43;;;;;;;16.47;15.27;;;19.70;27.60;;;;;;4940102;29;20192;-77
2023/09/07 07:31:09;;;;;;;15.90;15.00;;;19.80;27.80;;;;;;4939034;29;20428;-77
2023/09/07 07:33:35;;;;;;;16.03;14.80;;;19.80;27.50;;;;;;4952577;29;20188;-77
2023/09/07 07:36:01;;;;;;;15.77;14.60;;;19.80;27.60;;;;;;4954181;29;20520;-79
2023/09/07 07:38:27;;;;;;;14.73;13.93;;;19.90;27.60;;;;;;4954615;29;20228;-79
2023/09/07 07:40:53;;;;;;;15.80;14.70;;;20.00;27.60;;;;;;4939689;29;20645;-79
2023/09/07 07:43:18;;;;;;;14.77;13.80;;;20.10;27.30;;;;;;4935254;29;20180;-78
2023/09/07 07:45:44;;;;;;;14.67;13.67;;;20.10;27.20;;;;;;4942163;29;20776;-78
2023/09/07 07:48:10;;;;;;;17.80;16.70;;;20.20;27.00;;;;;;4966575;29;20176;-76
2023/09/07 07:50:39;;;;;;;15.60;14.30;;;20.20;26.80;;;;;;4950070;29;20191;-77
2023/09/07 07:53:06;;;;;;;15.07;14.23;;;20.10;27.10;;;;;;4951181;29;20188;-77
2023/09/07 07:55:40;;;;;;;16.73;15.33;;;20.20;27.10;;;;;;4953720;29;20621;-77
2023/09/07 07:58:07;;;;;;;15.70;14.70;;;20.30;27.20;;;;;;4940490;29;20853;-77
2023/09/07 08:00:34;;;;;;;14.70;13.67;;;20.30;26.70;;;;;;4955093;29;20467;-78
2023/09/07 08:03:02;;;;;;;13.90;13.10;;;20.40;26.70;;;;;;4954629;29;20424;-78
2023/09/07 08:05:27;;;;;;;15.13;14.23;;;20.40;26.60;;;;;;4940249;29;20471;-78
2023/09/07 08:07:53;;;;;;;15.70;14.80;;;20.50;26.40;;;;;;4939432;29;20481;-78
2023/09/07 08:10:19;;;;;;;15.93;14.87;;;20.60;26.10;;;;;;4938850;29;20192;-78
2023/09/07 08:12:44;;;;;;;15.87;14.80;;;20.60;26.80;;;;;;4941608;29;20192;-77
2023/09/07 08:15:10;;;;;;;14.93;13.80;;;20.70;26.30;;;;;;4940819;29;20231;-77
2023/09/07 08:17:35;;;;;;;14.70;13.77;;;20.70;25.70;;;;;;4940256;29;20215;-78
2023/09/07 08:20:02;;;;;;;15.27;14.50;;;20.80;25.80;;;;;;4934405;29;20326;-76
2023/09/07 08:22:34;;;;;;;14.17;13.37;;;20.80;26.00;;;;;;4936928;29;20187;-83
2023/09/07 08:25:00;;;;;;;15.00;14.10;;;20.90;25.80;;;;;;4932769;29;20447;-76
2023/09/07 08:27:25;;;;;;;15.20;14.40;;;20.90;25.60;;;;;;4935999;29;20436;-77
2023/09/07 08:29:51;;;;;;;14.17;13.17;;;21.00;25.10;;;;;;4940519;29;20192;-78
2023/09/07 08:32:17;;;;;;;14.57;13.87;;;21.10;25.50;;;;;;4942050;29;20194;-78
2023/09/07 08:34:43;;;;;;;15.40;14.40;;;21.10;25.20;;;;;;4942842;29;20212;-77
2023/09/07 08:37:08;;;;;;;14.37;13.57;;;21.20;24.30;;;;;;4957613;29;20442;-78
2023/09/07 08:39:34;;;;;;;13.87;13.10;;;21.30;24.30;;;;;;4939631;29;20192;-78
2023/09/07 08:42:00;;;;;;;14.23;13.30;;;21.40;24.40;;;;;;4940237;29;20196;-79
2023/09/07 08:44:26;;;;;;;15.00;14.20;;;21.40;24.10;;;;;;4954549;29;20458;-78
2023/09/07 08:46:53;;;;;;;14.80;14.00;;;21.60;24.00;;;;;;4939466;29;20515;-78
2023/09/07 08:49:19;;;;;;;13.53;12.73;;;21.60;23.50;;;;;;4938441;29;20636;-78
2023/09/07 08:51:44;;;;;;;14.30;13.60;;;21.70;23.70;;;;;;4937077;29;20770;-78
2023/09/07 08:54:11;;;;;;;14.33;13.43;;;21.70;23.50;;;;;;4952299;29;20483;-78
2023/09/07 08:56:37;;;;;;;16.23;15.13;;;21.70;23.50;;;;;;4938663;29;20200;-78
2023/09/07 08:59:04;;;;;;;15.60;14.80;;;21.80;23.50;;;;;;4939044;29;20954;-79
2023/09/07 09:01:31;;;;;;;15.20;14.50;;;21.80;23.50;;;;;;4935328;29;20211;-79
2023/09/07 09:03:57;;;;;;;14.30;13.60;;;21.80;23.50;;;;;;4954055;29;20435;-78
2023/09/07 09:06:23;;;;;;;15.67;14.77;;;21.90;23.30;;;;;;4942130;29;20495;-78
2023/09/07 09:08:55;;;;;;;15.07;14.47;;;22.10;23.10;;;;;;4940183;29;20432;-79
2023/09/07 09:11:21;;;;;;;16.43;15.27;;;22.30;23.20;;;;;;4923846;29;20193;-78
2023/09/07 09:13:49;;;;;;;16.60;15.70;;;22.40;22.40;;;;;;4929478;29;20854;-79
2023/09/07 09:16:15;;;;;;;15.40;14.50;;;22.80;21.50;;;;;;4941979;29;20444;-79
2023/09/07 09:18:55;;;;;;;15.13;14.17;;;23.10;20.90;;;;;;4942120;29;20548;-77
2023/09/07 09:21:27;;;;;;;15.67;14.87;;;23.30;20.60;;;;;;4933634;29;20474;-78
2023/09/07 09:23:54;;;;;;;16.20;15.40;;;23.50;20.50;;;;;;4939838;29;20428;-77
2023/09/07 09:26:20;;;;;;;14.03;13.23;;;23.70;20.00;;;;;;4936807;29;20424;-78
2023/09/07 09:28:46;;;;;;;15.97;15.07;;;23.90;20.30;;;;;;4938333;29;20424;-78
2023/09/07 09:31:14;;;;;;;14.30;13.40;;;24.00;19.20;;;;;;4937362;29;20424;-78
2023/09/07 09:33:41;;;;;;;13.70;13.00;;;24.20;19.90;;;;;;4936082;29;20437;-78
2023/09/07 09:36:07;;;;;;;14.67;13.50;;;24.20;18.70;;;;;;4950846;29;20506;-78
2023/09/07 09:38:34;;;;;;;14.93;14.03;;;24.40;18.70;;;;;;4938146;29;20436;-79
2023/09/07 09:41:00;;;;;;;13.70;12.90;;;24.50;18.40;;;;;;4939255;29;20468;-78
2023/09/07 09:43:26;;;;;;;12.50;11.80;;;24.60;18.30;;;;;;4953251;29;20464;-79
2023/09/07 09:45:52;;;;;;;12.70;11.77;;;24.70;17.90;;;;;;4937223;29;20440;-79
2023/09/07 09:48:22;;;;;;;12.60;11.67;;;24.80;17.50;;;;;;4929189;29;20428;-79
2023/09/07 09:50:48;;;;;;;12.70;12.00;;;25.00;17.70;;;;;;4938641;29;20431;-79
2023/09/07 09:53:18;;;;;;;12.87;11.97;;;25.00;17.70;;;;;;4955034;29;20435;-79
2023/09/07 09:55:52;;;;;;;12.03;11.23;;;25.10;17.40;;;;;;4940729;29;20451;-79
2023/09/07 09:58:18;;;;;;;13.40;12.50;;;25.10;16.80;;;;;;4939812;29;20959;-79
2023/09/07 10:00:55;;;;;;;12.17;11.50;;;25.30;16.90;;;;;;4940223;29;20495;-79
2023/09/07 10:03:34;;;;;;;13.80;12.70;;;25.40;16.70;;;;;;4924853;29;20179;-80
2023/09/07 10:06:24;;;;;;;12.43;11.33;;;25.40;16.70;;;;;;4939715;29;20463;-79
2023/09/07 10:09:04;;;;;;;13.10;12.20;;;25.40;17.10;;;;;;4940275;29;20995;-79
2023/09/07 10:11:37;;;;;;;12.70;11.90;;;25.40;16.70;;;;;;4932296;29;20435;-78
2023/09/07 10:14:04;;;;;;;13.03;12.23;;;25.40;16.70;;;;;;4940011;29;20428;-79
2023/09/07 10:16:44;;;;;;;12.80;12.20;;;25.50;16.70;;;;;;4940394;29;20986;-79
2023/09/07 10:19:26;;;;;;;13.17;12.57;;;25.50;16.70;;;;;;4940219;29;20446;-79
2023/09/07 10:21:54;;;;;;;14.27;13.37;;;25.60;16.80;;;;;;4940210;29;20807;-79
2023/09/07 10:24:39;;;;;;;16.53;15.33;;;25.60;16.80;;;;;;4940278;29;20448;-80
2023/09/07 10:27:10;;;;;;;14.13;13.10;;;25.60;16.80;;;;;;4938849;29;20940;-78
2023/09/07 10:29:49;;;;;;;12.83;12.07;;;25.70;16.80;;;;;;4938120;29;20748;-78
2023/09/07 10:32:16;;;;;;;12.07;11.37;;;25.60;16.80;;;;;;4938296;29;20424;-79
2023/09/07 10:34:45;;;;;;;14.20;12.93;;;25.60;16.80;;;;;;4938582;29;20514;-79
2023/09/07 10:37:13;;;;;;;13.97;13.07;;;25.60;16.90;;;;;;4938605;29;20936;-79
2023/09/07 10:39:40;;;;;;;13.93;12.93;;;25.70;16.80;;;;;;4936994;29;20921;-79
2023/09/07 10:42:05;;;;;;;13.00;12.10;;;25.70;16.90;;;;;;4938526;29;20503;-78
2023/09/07 10:44:31;;;;;;;14.10;13.30;;;25.70;16.50;;;;;;4938495;29;20460;-78
2023/09/07 10:47:00;;;;;;;13.17;12.37;;;25.70;16.70;;;;;;4937204;29;20182;-78
2023/09/07 10:49:25;;;;;;;13.63;12.83;;;25.70;16.20;;;;;;4938554;29;20195;-77
2023/09/07 10:51:51;;;;;;;13.00;12.20;;;25.80;16.70;;;;;;4954572;29;20435;-78
2023/09/07 10:54:21;;;;;;;11.93;11.13;;;25.70;16.80;;;;;;4938887;29;20208;-77
2023/09/07 10:56:49;;;;;;;12.93;11.97;;;25.80;16.80;;;;;;4953767;29;20184;-77
2023/09/07 10:59:15;;;;;;;14.43;13.37;;;25.90;16.50;;;;;;4940220;29;20783;-78
2023/09/07 11:01:42;;;;;;;14.97;13.17;;;25.90;16.40;;;;;;4943347;29;20467;-78
2023/09/07 11:04:13;;;;;;;14.37;13.57;;;25.90;16.20;;;;;;4946067;29;20426;-78
2023/09/07 11:06:41;;;;;;;13.53;12.53;;;25.90;16.50;;;;;;4945333;29;20453;-79
2023/09/07 11:09:10;;;;;;;13.00;12.20;;;26.00;16.30;;;;;;4941753;29;20435;-79
2023/09/07 11:11:36;;;;;;;13.23;12.43;;;25.90;16.40;;;;;;4942777;29;20439;-80
2023/09/07 11:14:05;;;;;;;12.97;12.27;;;25.90;16.40;;;;;;4942910;29;20446;-79
2023/09/07 11:16:32;;;;;;;13.70;12.80;;;25.90;16.70;;;;;;4943433;29;20435;-80
2023/09/07 11:19:04;;;;;;;14.10;13.03;;;25.90;16.90;;;;;;4942758;29;20485;-79
2023/09/07 11:21:31;;;;;;;14.33;13.47;;;25.80;16.90;;;;;;4943178;29;21006;-79
2023/09/07 11:23:57;;;;;;;13.20;12.43;;;25.70;16.80;;;;;;4943315;29;20432;-80
2023/09/07 11:26:23;;;;;;;14.60;13.57;;;25.80;16.90;;;;;;4943088;29;20514;-80
2023/09/07 11:28:48;;;;;;;14.20;13.37;;;25.80;16.90;;;;;;4942811;29;20474;-80
2023/09/07 11:31:18;;;;;;;14.60;13.73;;;25.80;16.90;;;;;;4942255;29;20188;-80
2023/09/07 11:33:44;;;;;;;14.00;13.10;;;25.90;16.90;;;;;;4958019;29;20184;-79
2023/09/07 11:36:11;;;;;;;14.37;13.53;;;25.90;16.60;;;;;;4943178;29;20443;-80
2023/09/07 11:38:40;;;;;;;15.40;14.30;;;26.00;16.70;;;;;;4957581;28;20192;-80
2023/09/07 11:41:05;;;;;;;14.60;13.60;;;26.00;16.60;;;;;;4942142;29;20606;-79
2023/09/07 11:43:33;;;;;;;14.20;13.30;;;26.00;16.50;;;;;;4942899;29;20484;-79
2023/09/07 11:46:00;;;;;;;13.87;13.17;;;26.10;16.80;;;;;;4956903;29;20208;-78
2023/09/07 11:48:26;;;;;;;13.47;12.53;;;26.00;16.50;;;;;;4934780;29;20435;-80
2023/09/07 11:50:51;;;;;;;14.63;13.93;;;25.90;16.70;;;;;;4942418;29;20818;-80
2023/09/07 11:53:17;;;;;;;13.87;12.60;;;25.90;16.90;;;;;;4942835;29;20687;-80
2023/09/07 11:55:45;;;;;;;13.50;12.80;;;26.00;17.00;;;;;;4943519;29;20275;-79
2023/09/07 11:58:11;;;;;;;13.13;12.23;;;26.00;16.60;;;;;;4942175;29;20192;-79
2023/09/07 12:00:36;;;;;;;13.27;12.57;;;26.10;16.30;;;;;;4942428;29;20526;-80
2023/09/07 12:03:02;;;;;;;13.40;12.50;;;26.30;15.80;;;;;;4942661;29;20188;-80
2023/09/07 12:05:28;;;;;;;12.70;12.00;;;26.30;15.80;;;;;;4942336;29;20224;-81
2023/09/07 12:07:53;;;;;;;13.63;12.60;;;26.20;16.00;;;;;;4942497;29;20657;-81
2023/09/07 12:10:19;;;;;;;13.37;12.50;;;26.10;16.20;;;;;;4939594;29;20583;-80
2023/09/07 12:12:45;;;;;;;12.70;12.10;;;26.20;16.20;;;;;;4939822;29;20195;-80
2023/09/07 12:15:13;;;;;;;13.10;12.40;;;26.40;15.50;;;;;;4940588;29;20207;-80
2023/09/07 12:17:39;;;;;;;13.23;12.33;;;26.40;15.40;;;;;;4942853;29;20340;-80
2023/09/07 12:20:09;;;;;;;12.07;11.27;;;26.30;15.90;;;;;;4935124;29;20652;-80
2023/09/07 12:22:37;;;;;;;13.07;12.27;;;26.30;16.10;;;;;;4956842;29;20443;-81
2023/09/07 12:25:06;;;;;;;13.13;11.83;;;26.20;16.50;;;;;;4941627;29;20452;-79
2023/09/07 12:27:36;;;;;;;13.97;12.70;;;26.40;15.60;;;;;;4942261;29;20424;-80
2023/09/07 12:30:06;;;;;;;12.07;11.30;;;26.40;15.70;;;;;;4941655;29;20522;-79
2023/09/07 12:32:32;;;;;;;12.73;11.93;;;26.60;15.10;;;;;;4940619;29;20440;-79
2023/09/07 12:34:57;;;;;;;12.67;11.77;;;26.60;15.10;;;;;;4938570;29;20466;-79
2023/09/07 12:37:24;;;;;;;12.77;12.07;;;26.60;14.90;;;;;;4937060;29;20176;-79
2023/09/07 12:39:51;;;;;;;12.97;12.17;;;26.60;14.60;;;;;;4938425;29;20199;-79
2023/09/07 12:42:17;;;;;;;15.50;14.30;;;26.60;14.80;;;;;;4937361;29;20819;-79
2023/09/07 12:44:43;;;;;;;12.00;11.00;;;26.50;15.40;;;;;;4937530;29;20443;-79
2023/09/07 12:47:09;;;;;;;14.40;13.27;;;26.60;14.20;;;;;;4937544;29;20430;-79
2023/09/07 12:49:34;;;;;;;11.70;11.10;;;26.80;14.10;;;;;;4937553;29;20515;-79
2023/09/07 12:52:00;;;;;;;10.30;9.80;;;26.90;13.60;;;;;;4937253;29;20656;-79
2023/09/07 12:54:25;;;;;;;11.90;11.20;;;27.00;13.30;;;;;;4951644;29;20203;-79
2023/09/07 12:56:52;;;;;;;11.57;10.97;;;26.90;13.70;;;;;;4936810;29;20188;-79
2023/09/07 12:59:18;;;;;;;10.70;10.10;;;26.80;13.60;;;;;;4951210;29;20187;-80
2023/09/07 13:01:43;;;;;;;10.63;10.10;;;26.80;13.70;;;;;;4936246;29;20976;-79
2023/09/07 13:04:11;;;;;;;11.97;11.10;;;26.90;13.40;;;;;;4936488;29;20231;-80
2023/09/07 13:06:37;;;;;;;10.37;9.67;;;26.90;13.40;;;;;;4939887;29;20187;-80
2023/09/07 13:09:04;;;;;;;10.33;9.83;;;27.00;13.10;;;;;;4941106;29;20435;-80
2023/09/07 13:11:30;;;;;;;10.10;9.60;;;27.00;13.00;;;;;;4932930;29;20447;-79
2023/09/07 13:13:55;;;;;;;10.67;10.07;;;27.10;12.70;;;;;;4940699;29;21026;-81
2023/09/07 13:16:21;;;;;;;10.40;9.90;;;27.00;12.90;;;;;;4939714;29;20200;-80
2023/09/07 13:18:46;;;;;;;10.90;10.30;;;27.10;13.10;;;;;;4947936;29;20283;-80
2023/09/07 13:21:12;;;;;;;10.70;10.10;;;27.00;12.60;;;;;;4932169;29;20212;-79
2023/09/07 13:23:37;;;;;;;9.80;9.30;;;27.00;12.70;;;;;;4930109;29;20199;-80
2023/09/07 13:26:03;;;;;;;10.83;10.23;;;27.00;13.10;;;;;;4946825;29;20209;-80
2023/09/07 13:28:28;;;;;;;10.90;10.30;;;26.90;13.00;;;;;;4932580;29;20200;-79
2023/09/07 13:30:54;;;;;;;11.07;10.47;;;26.80;13.40;;;;;;4952855;29;20653;-79
2023/09/07 13:33:20;;;;;;;11.13;10.43;;;26.90;13.70;;;;;;4931534;29;20196;-79
2023/09/07 13:35:45;;;;;;;11.87;11.17;;;27.00;12.80;;;;;;4931966;29;20215;-79
2023/09/07 13:38:11;;;;;;;10.00;9.50;;;27.30;12.30;;;;;;4937998;29;20593;-79
2023/09/07 13:40:36;;;;;;;9.83;9.33;;;27.30;11.90;;;;;;4933594;29;20215;-79
2023/09/07 13:43:02;;;;;;;10.80;10.20;;;27.30;11.90;;;;;;4941257;29;20198;-80
2023/09/07 13:45:29;;;;;;;10.10;9.50;;;27.30;12.40;;;;;;4940488;29;20203;-79
2023/09/07 13:47:55;;;;;;;10.57;9.97;;;27.40;11.80;;;;;;4938839;29;20187;-79
2023/09/07 13:50:21;;;;;;;10.30;9.80;;;27.40;12.20;;;;;;4939556;29;20420;-80
2023/09/07 13:52:47;;;;;;;9.93;9.43;;;27.30;12.60;;;;;;4940253;29;20428;-80
2023/09/07 13:55:13;;;;;;;11.37;10.27;;;27.10;12.90;;;;;;4939776;29;20200;-79
2023/09/07 13:57:38;;;;;;;9.97;9.23;;;27.10;13.20;;;;;;4941074;29;20422;-79
2023/09/07 14:00:05;;;;;;;9.50;9.10;;;27.00;13.00;;;;;;4940573;29;20230;-79
2023/09/07 14:02:32;;;;;;;10.07;9.27;;;26.90;12.70;;;;;;4940345;29;20325;-78
2023/09/07 14:04:58;;;;;;;9.27;8.73;;;27.10;12.10;;;;;;4939527;29;20431;-78
2023/09/07 14:07:25;;;;;;;9.10;8.60;;;27.10;11.90;;;;;;4940265;29;20904;-78
2023/09/07 14:09:51;;;;;;;10.07;9.17;;;27.10;12.40;;;;;;4954334;29;20631;-78
2023/09/07 14:12:17;;;;;;;10.57;8.50;;;27.00;12.60;;;;;;4953818;29;20454;-78
2023/09/07 14:14:43;;;;;;;9.53;9.03;;;27.20;12.20;;;;;;4939806;29;20935;-78
2023/09/07 14:17:08;;;;;;;9.90;9.20;;;27.30;11.90;;;;;;4939325;29;20176;-78
2023/09/07 14:19:34;;;;;;;10.17;9.40;;;27.30;12.60;;;;;;4939143;29;20239;-78
2023/09/07 14:21:59;;;;;;;9.20;8.70;;;27.20;12.60;;;;;;4939147;29;20599;-78
2023/09/07 14:24:25;;;;;;;8.50;7.97;;;27.20;11.70;;;;;;4953153;29;20200;-78
2023/09/07 14:26:51;;;;;;;9.40;8.90;;;27.20;11.90;;;;;;4939526;29;20184;-79
2023/09/07 14:29:17;;;;;;;9.90;8.97;;;27.20;12.30;;;;;;4937677;29;20690;-77
2023/09/07 14:31:43;;;;;;;9.97;9.23;;;27.20;11.90;;;;;;4939516;29;20184;-78
2023/09/07 14:34:10;;;;;;;10.33;9.40;;;27.40;11.90;;;;;;4942556;29;20187;-78
2023/09/07 14:36:36;;;;;;;9.47;8.93;;;27.40;11.50;;;;;;4957445;29;20475;-78
2023/09/07 14:39:02;;;;;;;8.90;8.40;;;27.60;11.60;;;;;;4942782;29;20503;-78
2023/09/07 14:41:30;;;;;;;7.73;7.23;;;27.40;12.10;;;;;;4942639;29;20211;-78
2023/09/07 14:43:56;;;;;;;7.80;7.30;;;27.30;12.10;;;;;;4943006;29;20499;-78
2023/09/07 14:46:23;;;;;;;10.13;8.53;;;27.30;11.90;;;;;;4944034;29;21187;-77
2023/09/07 14:48:49;;;;;;;9.27;8.67;;;27.50;11.80;;;;;;4958713;29;20247;-78
2023/09/07 14:51:15;;;;;;;8.03;7.53;;;27.50;11.30;;;;;;4943476;29;20853;-78
2023/09/07 14:53:40;;;;;;;8.90;8.10;;;27.50;11.60;;;;;;4943550;29;20176;-78
2023/09/07 14:56:06;;;;;;;8.60;7.93;;;27.50;11.60;;;;;;4957937;29;20286;-77
2023/09/07 14:58:31;;;;;;;7.60;7.20;;;27.40;11.70;;;;;;4943013;29;20203;-78
2023/09/07 15:00:58;;;;;;;8.07;7.57;;;27.30;11.70;;;;;;4942270;29;20251;-77
2023/09/07 15:03:23;;;;;;;7.77;7.27;;;27.40;11.30;;;;;;4954784;29;20180;-79
2023/09/07 15:05:49;;;;;;;7.77;7.37;;;27.30;11.00;;;;;;4954842;29;20451;-77
2023/09/07 15:08:15;;;;;;;7.80;7.30;;;27.30;11.30;;;;;;4932388;29;20192;-77
2023/09/07 15:10:40;;;;;;;8.30;7.80;;;27.30;11.20;;;;;;4920828;29;20191;-78
2023/09/07 15:13:07;;;;;;;8.17;7.67;;;27.20;11.30;;;;;;4921064;29;20177;-77
2023/09/07 15:15:36;;;;;;;8.57;7.97;;;27.10;11.60;;;;;;4935889;29;20200;-77
2023/09/07 15:18:02;;;;;;;8.57;7.97;;;27.20;11.90;;;;;;4921060;29;20425;-77
2023/09/07 15:20:28;;;;;;;7.20;6.80;;;27.30;11.90;;;;;;4937533;29;20509;-77
2023/09/07 15:22:54;;;;;;;8.37;7.80;;;27.30;11.50;;;;;;4920490;29;20417;-77
2023/09/07 19:29:07;;;;;;;10.70;9.83;;;23.90;16.70;;;;;;5260047;23;20556;-76
2023/09/07 19:31:48;;;;;;;9.93;9.43;;;23.90;16.80;;;;;;4970396;28;20462;-78
2023/09/07 19:34:26;;;;;;;9.60;8.90;;;23.80;16.80;;;;;;4955316;28;20431;-77
2023/09/07 19:37:02;;;;;;;9.20;8.60;;;23.80;16.90;;;;;;4956714;28;20745;-77
2023/09/07 19:39:29;;;;;;;9.87;9.27;;;23.80;17.00;;;;;;4956639;29;20442;-76
2023/09/07 19:41:56;;;;;;;9.50;8.33;;;23.80;17.10;;;;;;4956097;29;20465;-77
2023/09/07 19:44:23;;;;;;;8.87;8.03;;;23.80;17.10;;;;;;4952655;28;20260;-76
2023/09/07 19:46:48;;;;;;;9.70;9.20;;;23.70;17.10;;;;;;4954138;28;20533;-76
2023/09/07 19:49:14;;;;;;;10.53;9.73;;;23.70;17.30;;;;;;4955032;29;20505;-75
2023/09/07 19:51:40;;;;;;;9.93;9.33;;;23.70;17.40;;;;;;4957748;28;20178;-75
2023/09/07 19:54:05;;;;;;;9.20;8.60;;;23.70;17.40;;;;;;4983497;28;20558;-75
2023/09/07 19:56:31;;;;;;;11.20;10.13;;;23.60;17.50;;;;;;4978696;28;20195;-76
2023/09/07 19:58:56;;;;;;;10.47;9.80;;;23.60;17.70;;;;;;4971292;28;20171;-77
2023/09/07 20:01:23;;;;;;;10.93;10.23;;;23.60;17.70;;;;;;4956296;29;20214;-76
2023/09/07 20:03:52;;;;;;;11.67;10.53;;;23.60;17.70;;;;;;4956393;29;20175;-76
2023/09/07 20:06:21;;;;;;;10.70;9.90;;;23.60;17.80;;;;;;4956451;28;20435;-77
2023/09/07 20:08:47;;;;;;;10.50;9.50;;;23.50;17.70;;;;;;4955842;28;20796;-76
2023/09/07 20:11:14;;;;;;;11.97;10.87;;;23.50;17.90;;;;;;4956069;28;20426;-76
2023/09/07 20:13:42;;;;;;;11.40;10.53;;;23.40;17.90;;;;;;4956158;28;20494;-76
2023/09/07 20:16:13;;;;;;;11.40;10.67;;;23.40;18.10;;;;;;4963315;23;20491;-76
2023/09/07 20:18:39;;;;;;;15.00;12.30;;;23.40;18.20;;;;;;4935633;29;20434;-76
2023/09/07 20:21:22;;;;;;;11.80;10.90;;;23.40;18.50;;;;;;4937803;29;20535;-76
2023/09/07 20:23:58;;;;;;;10.87;10.00;;;23.30;18.70;;;;;;4934371;29;20192;-76
2023/09/07 20:26:27;;;;;;;10.97;10.07;;;23.30;18.90;;;;;;4941670;29;20444;-76
2023/09/07 20:28:57;;;;;;;11.77;10.97;;;23.30;19.10;;;;;;4918390;29;20417;-75
2023/09/07 20:31:26;;;;;;;12.50;11.57;;;23.30;19.30;;;;;;4915439;29;20436;-75
2023/09/07 20:34:05;;;;;;;10.30;9.50;;;23.20;19.60;;;;;;4931371;29;20439;-75
2023/09/07 20:36:33;;;;;;;11.37;10.50;;;23.20;19.60;;;;;;4915589;29;20447;-75
2023/09/07 20:39:04;;;;;;;9.87;9.20;;;23.10;19.60;;;;;;4921245;29;20461;-75
2023/09/07 20:41:30;;;;;;;11.60;10.53;;;23.10;19.90;;;;;;4916932;29;20460;-74
2023/09/07 20:43:55;;;;;;;12.13;11.33;;;23.10;19.80;;;;;;4932025;29;20436;-75
2023/09/07 20:46:24;;;;;;;12.83;11.60;;;23.00;19.90;;;;;;4935789;23;20235;-77
2023/09/07 20:52:10;;;;;;;11.03;10.03;;;23.00;19.90;;;;;;4888070;29;20438;-76
2023/09/07 20:54:39;;;;;;;10.80;10.10;;;22.90;20.20;;;;;;4930178;29;20801;-76
2023/09/07 20:57:22;;;;;;;11.13;10.00;;;22.90;20.20;;;;;;4935110;29;20444;-76
2023/09/07 20:59:58;;;;;;;11.10;10.30;;;22.90;20.30;;;;;;4950384;29;20958;-76
2023/09/07 21:06:10;;;;;;;11.90;11.10;;;22.90;20.50;;;;;;5068726;23;20557;-75
2023/09/07 21:08:36;;;;;;;10.90;10.17;;;22.80;20.70;;;;;;4930489;29;20508;-75
2023/09/07 21:11:01;;;;;;;11.37;10.50;;;22.80;20.80;;;;;;4927907;29;20249;-77
2023/09/07 21:13:27;;;;;;;11.30;10.60;;;22.70;20.80;;;;;;4935115;29;20184;-76
2023/09/07 21:15:52;;;;;;;10.33;9.60;;;22.80;20.70;;;;;;4933582;29;20207;-77
2023/09/07 21:18:18;;;;;;;11.60;10.80;;;22.70;20.70;;;;;;4926500;29;20255;-75
2023/09/07 21:20:46;;;;;;;10.47;9.77;;;22.70;20.70;;;;;;4933835;29;20223;-75
2023/09/07 21:23:11;;;;;;;10.40;9.60;;;22.60;20.70;;;;;;4929489;29;20260;-77
2023/09/07 21:25:39;;;;;;;10.23;9.53;;;22.60;20.60;;;;;;4926245;29;20476;-76
2023/09/07 21:28:05;;;;;;;11.20;10.50;;;22.60;20.70;;;;;;4928662;29;20190;-76
2023/09/07 21:30:31;;;;;;;10.83;10.13;;;22.60;20.90;;;;;;4941271;29;20869;-76
2023/09/07 21:32:57;;;;;;;10.47;9.87;;;22.50;20.80;;;;;;4923724;29;20455;-76
2023/09/07 21:35:23;;;;;;;12.17;11.17;;;22.50;21.00;;;;;;4923138;29;20457;-76
2023/09/07 21:37:48;;;;;;;10.10;9.47;;;22.50;21.00;;;;;;4923139;29;20184;-75
2023/09/07 21:40:14;;;;;;;9.60;9.00;;;22.50;20.90;;;;;;4921175;29;20219;-74
2023/09/07 21:42:39;;;;;;;11.23;10.43;;;22.50;20.90;;;;;;4923489;29;20184;-75
2023/09/07 21:45:05;;;;;;;9.97;9.30;;;22.40;20.80;;;;;;4938010;29;20188;-74
2023/09/07 21:47:31;;;;;;;9.47;8.87;;;22.40;20.70;;;;;;4938098;29;20205;-75
2023/09/07 21:49:57;;;;;;;9.30;8.70;;;22.40;20.80;;;;;;4927008;29;20176;-76
2023/09/07 21:52:23;;;;;;;10.10;9.20;;;22.30;20.90;;;;;;4926592;29;20184;-75
2023/09/07 21:54:49;;;;;;;10.37;9.73;;;22.30;21.20;;;;;;4923538;29;20184;-77
2023/09/07 21:57:16;;;;;;;9.63;9.03;;;22.30;21.30;;;;;;4925387;29;20523;-77
2023/09/07 21:59:57;;;;;;;9.93;9.33;;;22.20;21.20;;;;;;4926842;29;20200;-78
2023/09/07 22:02:23;;;;;;;10.17;9.47;;;22.20;21.30;;;;;;4925052;29;20437;-74
2023/09/07 22:04:52;;;;;;;9.83;9.13;;;22.20;21.40;;;;;;4919859;29;20430;-75
2023/09/07 22:07:18;;;;;;;9.63;9.03;;;22.20;21.60;;;;;;4925993;29;20455;-75
2023/09/07 22:09:43;;;;;;;10.30;9.70;;;22.20;21.70;;;;;;4933879;29;21009;-75
2023/09/07 22:12:09;;;;;;;10.77;10.07;;;22.10;21.60;;;;;;4926911;29;20212;-76
2023/09/07 22:14:35;;;;;;;10.50;9.80;;;22.10;21.80;;;;;;4926242;29;20279;-75
2023/09/07 22:17:01;;;;;;;11.17;10.50;;;22.10;22.10;;;;;;4929105;29;20271;-76
2023/09/07 22:19:27;;;;;;;10.47;9.87;;;22.10;22.20;;;;;;4920119;29;20276;-76
2023/09/07 22:21:52;;;;;;;11.87;11.07;;;22.00;22.40;;;;;;4927396;29;20550;-76
2023/09/07 22:24:18;;;;;;;11.97;11.10;;;22.00;22.60;;;;;;4929094;29;20637;-76
2023/09/07 22:26:43;;;;;;;12.20;11.30;;;22.00;23.00;;;;;;4923098;29;20213;-76
2023/09/07 22:29:11;;;;;;;11.30;10.53;;;22.00;23.00;;;;;;4941801;29;20191;-77
2023/09/07 22:31:37;;;;;;;11.40;10.30;;;22.00;23.00;;;;;;4928371;29;20270;-77
2023/09/07 22:34:03;;;;;;;11.33;10.60;;;22.00;23.60;;;;;;4930875;29;20891;-79
2023/09/07 22:36:28;;;;;;;11.37;10.70;;;22.00;23.10;;;;;;4942358;29;20475;-75
2023/09/07 22:38:55;;;;;;;12.50;11.70;;;21.90;23.00;;;;;;4934581;29;20247;-75
2023/09/07 22:41:21;;;;;;;12.90;12.10;;;21.90;23.00;;;;;;4951474;29;20303;-75
2023/09/07 22:43:50;;;;;;;12.40;11.60;;;21.90;23.00;;;;;;4935195;29;20435;-77
2023/09/07 22:46:15;;;;;;;12.07;11.23;;;21.90;23.00;;;;;;4917990;29;20197;-76
2023/09/07 22:48:41;;;;;;;12.27;11.47;;;21.90;23.30;;;;;;4917169;29;20944;-76
2023/09/07 22:51:07;;;;;;;11.70;11.00;;;21.80;23.50;;;;;;4919746;29;20185;-75
2023/09/07 22:53:32;;;;;;;12.57;11.67;;;21.80;23.80;;;;;;4918699;29;20260;-75
2023/09/07 22:55:58;;;;;;;12.40;11.60;;;21.70;23.80;;;;;;4918949;29;20603;-76
2023/09/07 22:58:24;;;;;;;11.93;11.20;;;21.70;24.00;;;;;;4934833;29;20189;-76
2023/09/07 23:00:51;;;;;;;12.27;11.20;;;21.70;24.10;;;;;;4920427;29;20247;-76
2023/09/07 23:03:17;;;;;;;12.70;11.60;;;21.70;24.10;;;;;;4920847;29;20448;-75
2023/09/07 23:05:43;;;;;;;12.10;11.00;;;21.70;24.20;;;;;;4920835;29;20432;-75
2023/09/07 23:08:12;;;;;;;13.10;12.20;;;21.70;24.30;;;;;;4921134;29;20429;-75
2023/09/07 23:10:38;;;;;;;12.97;12.17;;;21.60;24.40;;;;;;4921036;29;20504;-75
2023/09/07 23:13:06;;;;;;;12.70;11.80;;;21.60;24.50;;;;;;4920865;29;20421;-75
2023/09/07 23:15:32;;;;;;;13.30;12.20;;;21.60;24.70;;;;;;4921056;29;20439;-75
2023/09/07 23:17:59;;;;;;;13.73;12.70;;;21.60;24.70;;;;;;4919639;29;20420;-76
2023/09/07 23:20:25;;;;;;;13.20;12.40;;;21.60;24.80;;;;;;4920478;29;20543;-76